Agana, Guam
Current Conditions -  °F | °C
As of 12:54 AM on Monday 22 Dec 2014 (Local Time) from PGUM Reporting Station
Few Clouds Few Clouds  
Wind Chill: 82°   Ceiling: Unl
Heat Index: 89°   Visibility: 10mi
Dew Point: 76°   Wind: 17mph
Humidity: 82%   Direction: 80°E
Pressure: 29.87"   Gusts: 26mph
Location:  13.4751°N, 144.7484°E
Report Text: PGUM 211454Z 08015G23KT 10SM FEW019 28/24 A2987 RMK AO2 SLP106 60000 T02780244 56007
Loading
Personal Weather Stations






























Interactive Weather Map New forecast layout! Learn more

10-Day Weather Forecast

Advertisements
Track Severe Weather on mobile